Terminal Aerodrome Forecast
Issued by NWS

Home | Current Version | Previous Version | Text Only | Print | Product List | Glossary On
Versions: 1 2 3 4 5 6 7 8 9 10 11 12 13 14 15 16 17 18 19 20 21 22 23 24 25 26 27 28 29 30 31 32
175
FTUS43 KDLH 131140
TAFHYR
TAF
KHYR 131140Z 1312/1412 11005KT 3/4SM -SHSN VV013
      TEMPO 1312/1313 1/2SM SN VV009
     FM131500 08006KT 1SM -SN OVC015
     FM131700 05006KT 2SM -SN OVC030
     FM131800 04006KT 3SM -SN OVC025
     FM140600 VRB03KT P6SM OVC015=

USA.gov is the U.S. government's official web portal to all federal, state and local government web resources and services.